الصفحة الرئيسية
METAR-TAF:

METAR-TAF

مطار :

Sisseton Municipal Airport

Sisseton, داكوتا الجنوبية, الولايات المتحدة

دائرة عرض: 45-40-08N, خط طول: 096-59-29W, ارتفاع: 354 متر

مراقبة الطقس الحالي

تاريخ ووقت الإصدار 18 دقيقة قبل الساعة 10:56UTC
ريح 8 عقدة من الجنوب الشرقي
درجة الحرارة -3°درجة مئوية
الرطوبة 80%
ضغط 1016 hPa

METAR: K8D3 151056Z AUTO 13008KT M03/M06 A3000 RMK AO1 SLP178 T10331061

زمن: 05:14 (11:14 UTC)


TAF: مفقودة

أرصاد الطقس والتوقعات من أكثر من 4000 مطار (تقارير الطقس للمطار METAR والتنبؤ بالطقس بالمطارTAF).

المحطات المتاحة هي النقط الصفراء والحمراء على الخريطة.

حرك المؤشر فوق النقطة لمعرفة اسم المحطة.

ثم انقر لمعرفة أرصاد وتوقعات الطقس.

لتغيير الخارطة: اضغط على الأزرار الخضراء مع رمز الصليب الأسود للتكبير. على الزر الأخضر مع شرطة للتصغير، أو على الأسهم الخضراء للخرائط المجاورة.


METAR-TAF: